• Join FlightAware (Why Join?)
  • Login
  • US Flag 
11:19PM EDT


 

Airport Tracker/Info


-or-


 

Live Flight TrackerFlight Track Log ✈ UAL4843 ✈ 20-Apr-2013 ✈ KBDL - KEWR

Flight Track Log - Related Links

Times and Time Zones

All times are in EDT time to prevent confusion due to time zone crossing. See the UAL4843 flight status page for this flight to view local times or setup timezone preferences in your user account.

Time Position Orientation Groundspeed Altitude Reporting Facility
EDT Latitude Longitude Course Direction KTS MPH feet Rate Location/Type
10:09AM 41.9292 -72.7025 244° Southwest 136 157 800  Level Boston Center
10:10AM 41.8956 -72.7442 223° Southwest 140 161 2,500 1,500 Climbing Boston Center
10:11AM 41.8561 -72.7633 200° South 154 177 4,100 1,560 Climbing Boston Center
10:12AM 41.8183 -72.7800 198° South 150 173 5,600 960 Climbing Boston Center
10:13AM 41.7747 -72.8019 201° Southwest 175 201 6,000 180 Climbing Boston Center
10:14AM 41.6209 -72.5676 244° Southwest  Level FlightAware Approximate
10:14AM 41.7183 -72.8267 198° South 216 249 6,000  Level Boston Center
10:16AM 41.5833 -72.8833 197° South 248 285 6,100  Climbing New York TRACON
10:17AM 41.5167 -72.9167 201° Southwest 243 280 6,100  Level New York TRACON
10:18AM 41.5000 -72.9833 252° West 216 249 6,100 -60 Level New York TRACON
10:19AM 41.4667 -73.0500 236° Southwest 212 244 6,000 -60 Descending New York TRACON
10:20AM 41.4500 -73.1167 252° West 212 244 6,000  Level New York TRACON
10:21AM 41.4167 -73.1833 236° Southwest 216 249 6,000  Level New York TRACON
10:22AM 41.4000 -73.2667 255° West 214 246 6,000  Level New York TRACON
10:23AM 41.3667 -73.3333 236° Southwest 214 246 6,000  Level New York TRACON
10:24AM 41.3500 -73.4000 252° West 211 243 6,000  Level New York TRACON
10:25AM 41.3167 -73.4833 242° Southwest 214 246 6,000 -540 Level New York TRACON
10:26AM 41.2833 -73.5500 236° Southwest 225 259 5,000 -540 Descending New York TRACON
10:27AM 41.2833 -73.6333 270° West 225 259 5,000  Level New York TRACON
10:28AM 41.2667 -73.7167 255° West 232 267 5,000  Level New York TRACON
10:29AM 41.2667 -73.8000 270° West 232 267 5,000  Level New York TRACON
10:30AM 41.2500 -73.8833 255° West 229 264 5,000  Level New York TRACON
10:31AM 41.2500 -73.9667 270° West 224 258 5,000  Level New York TRACON
10:32AM 41.2333 -74.0500 255° West 227 261 5,000  Level New York TRACON
10:33AM 41.2000 -74.1167 236° Southwest 233 268 5,000  Level New York TRACON
10:34AM 41.1500 -74.1833 225° Southwest 235 270 5,000  Level New York TRACON
10:35AM 41.1167 -74.2500 236° Southwest 235 270 5,000  Level New York TRACON
10:36AM 41.0667 -74.3167 225° Southwest 231 266 5,000  Level New York TRACON
10:37AM 41.0167 -74.3167 180° South 261 300 5,000 -420 Level New York TRACON
10:38AM 40.9833 -74.2333 118° Southeast 271 312 4,200 -540 Descending New York TRACON
10:39AM 40.9500 -74.1500 118° Southeast 261 300 4,000 -180 Descending New York TRACON
10:40AM 40.9000 -74.1000 143° Southeast 204 235 3,900 -420 Descending New York TRACON
10:41AM 40.8500 -74.0667 153° Southeast 191 220 3,200 -660 Descending New York TRACON
10:42AM 40.8167 -74.0833 201° Southwest 172 198 2,600 -780 Descending New York TRACON
10:43AM 40.7667 -74.0833 180° South 180 207 1,700 -600 Descending New York TRACON
10:44AM 40.7167 -74.0833 180° South 168 193 1,400 -600 Descending New York TRACON
10:45AM 40.7000 -74.1167 237° Southwest 121 139 600 -840 Descending New York TRACON
10:47AM 40.6833 -74.1667 185° South  Level FlightAware Approximate
10:54AM 40.6925 -74.1687 185° South  Level Estimated